Time;durP1;ratioP1;P1;durP2;ratioP2;P2;SDS_P1;SDS_P2;PMS_P1;PMS_P2;Temp;Humidity;BMP_temperature;BMP_pressure;BME280_temperature;BME280_humidity;BME280_pressure;Samples;Min_cycle;Max_cycle;Signal;HPM_P1;HPM_P2
2023/12/02 00:00:08;;;;;;;24.77;17.40;;;3.10;99.90;;;;;;5026083;28;20209;-84
2023/12/02 00:02:34;;;;;;;25.92;17.73;;;2.80;99.90;;;;;;5031369;28;20183;-84
2023/12/02 00:05:00;;;;;;;24.83;17.57;;;2.70;99.90;;;;;;5028005;28;20198;-84
2023/12/02 00:07:26;;;;;;;27.40;18.75;;;2.90;99.90;;;;;;5036971;28;20186;-84
2023/12/02 00:09:51;;;;;;;22.17;16.37;;;3.30;99.90;;;;;;5030792;28;20214;-84
2023/12/02 00:12:17;;;;;;;25.00;15.93;;;3.40;99.90;;;;;;5017952;28;20187;-84
2023/12/02 00:14:43;;;;;;;24.03;17.53;;;3.10;99.90;;;;;;5020148;28;20222;-84
2023/12/02 00:17:08;;;;;;;21.70;15.80;;;3.50;99.90;;;;;;5020545;28;20195;-84
2023/12/02 00:19:34;;;;;;;21.83;17.07;;;2.90;99.90;;;;;;5023052;28;20453;-84
2023/12/02 00:21:59;;;;;;;23.83;15.43;;;3.00;99.90;;;;;;5038468;28;20243;-84
2023/12/02 00:24:25;;;;;;;23.87;15.33;;;3.00;99.90;;;;;;5024891;28;20270;-83
2023/12/02 00:26:50;;;;;;;24.07;15.67;;;3.40;99.90;;;;;;5027926;28;20191;-84
2023/12/02 00:29:16;;;;;;;23.23;16.77;;;3.30;99.90;;;;;;5002849;28;20205;-84
2023/12/02 00:31:41;;;;;;;22.60;15.37;;;2.80;99.90;;;;;;5022884;28;20189;-84
2023/12/02 00:34:07;;;;;;;21.03;15.23;;;2.80;99.90;;;;;;5023273;28;20222;-84
2023/12/02 00:36:32;;;;;;;24.83;16.07;;;2.70;99.90;;;;;;5025165;28;20197;-84
2023/12/02 00:38:58;;;;;;;23.73;16.33;;;2.70;99.90;;;;;;5024874;28;20277;-84
2023/12/02 00:41:23;;;;;;;20.47;15.00;;;3.00;99.90;;;;;;5039536;28;20187;-84
2023/12/02 00:43:49;;;;;;;20.60;15.70;;;2.60;99.90;;;;;;5025119;28;20211;-84
2023/12/02 00:46:14;;;;;;;21.50;14.07;;;2.70;99.90;;;;;;5024605;28;20203;-84
2023/12/02 00:48:40;;;;;;;22.87;15.33;;;2.60;99.90;;;;;;5022714;28;20535;-84
2023/12/02 00:51:06;;;;;;;25.10;16.33;;;3.10;99.90;;;;;;5022687;28;20191;-84
2023/12/02 00:53:31;;;;;;;21.17;14.57;;;2.50;99.90;;;;;;5015139;28;20719;-84
2023/12/02 00:55:57;;;;;;;21.20;15.23;;;3.40;99.90;;;;;;5015410;28;20183;-84
2023/12/02 00:58:22;;;;;;;22.60;16.13;;;2.70;99.90;;;;;;5012555;28;20184;-84
2023/12/02 01:00:48;;;;;;;23.07;15.40;;;2.60;99.90;;;;;;5020130;28;20194;-84
2023/12/02 01:03:13;;;;;;;23.87;16.47;;;2.40;99.90;;;;;;5019455;28;20186;-84
2023/12/02 01:05:40;;;;;;;29.17;19.07;;;2.50;99.90;;;;;;5014861;28;20191;-84
2023/12/02 01:08:05;;;;;;;25.08;16.70;;;2.10;99.90;;;;;;5014697;28;20183;-84
2023/12/02 01:10:31;;;;;;;24.87;15.97;;;2.20;99.90;;;;;;5013478;28;20183;-85
2023/12/02 01:12:56;;;;;;;26.07;17.50;;;2.60;99.90;;;;;;5013364;28;20609;-84
2023/12/02 01:15:22;;;;;;;26.70;17.63;;;2.40;99.90;;;;;;5015863;28;20186;-84
2023/12/02 01:17:47;;;;;;;25.00;17.47;;;2.40;99.90;;;;;;5018356;28;20188;-84
2023/12/02 01:20:13;;;;;;;24.67;16.80;;;2.50;99.90;;;;;;5013121;28;20189;-85
2023/12/02 01:22:39;;;;;;;22.60;17.17;;;2.40;99.90;;;;;;5011941;28;20185;-84
2023/12/02 01:25:05;;;;;;;26.03;17.90;;;2.80;99.90;;;;;;5019021;28;20212;-84
2023/12/02 01:27:30;;;;;;;26.60;17.15;;;2.70;99.90;;;;;;5037212;28;20178;-84
2023/12/02 01:29:56;;;;;;;21.20;15.90;;;2.80;99.90;;;;;;5038785;28;20185;-84
2023/12/02 01:32:21;;;;;;;23.13;16.03;;;2.30;99.90;;;;;;5026384;28;20200;-84
2023/12/02 01:34:47;;;;;;;22.23;16.90;;;2.50;99.90;;;;;;5019973;28;20223;-84
2023/12/02 01:37:12;;;;;;;28.37;17.50;;;2.50;99.90;;;;;;5016691;28;20300;-84
2023/12/02 01:39:38;;;;;;;24.53;18.43;;;2.40;99.90;;;;;;5027851;28;20178;-84
2023/12/02 01:42:04;;;;;;;23.00;17.07;;;2.70;99.90;;;;;;5022081;28;20219;-84
2023/12/02 01:44:30;;;;;;;25.05;16.95;;;2.20;99.90;;;;;;5021348;28;20242;-84
2023/12/02 01:46:56;;;;;;;26.98;17.05;;;2.20;99.90;;;;;;5016461;28;21315;-84
2023/12/02 01:49:22;;;;;;;24.23;15.97;;;2.80;99.90;;;;;;5035799;28;20198;-84
2023/12/02 01:51:48;;;;;;;22.80;16.33;;;2.30;99.90;;;;;;5021305;28;20197;-84
2023/12/02 01:54:14;;;;;;;26.45;18.05;;;2.40;99.90;;;;;;5034240;28;20481;-84
2023/12/02 01:56:40;;;;;;;23.07;18.07;;;2.70;99.90;;;;;;5020000;28;20176;-84
2023/12/02 01:59:06;;;;;;;21.30;15.37;;;2.50;99.90;;;;;;5017424;28;20191;-84
2023/12/02 02:01:31;;;;;;;25.13;17.23;;;2.30;99.90;;;;;;5037758;28;20434;-84
2023/12/02 02:03:59;;;;;;;24.33;17.17;;;2.30;99.90;;;;;;5021502;28;20358;-84
2023/12/02 02:06:25;;;;;;;24.73;17.13;;;2.10;99.90;;;;;;5020773;28;20328;-84
2023/12/02 02:08:50;;;;;;;25.33;17.20;;;2.10;99.90;;;;;;5015990;28;20269;-84
2023/12/02 02:11:16;;;;;;;22.40;15.50;;;2.20;99.90;;;;;;5019213;28;20224;-84
2023/12/02 02:13:41;;;;;;;24.17;16.97;;;2.40;99.90;;;;;;5018693;28;20218;-84
2023/12/02 02:16:07;;;;;;;22.10;17.00;;;2.30;99.90;;;;;;5018223;28;20229;-84
2023/12/02 02:18:35;;;;;;;21.30;14.10;;;2.30;99.90;;;;;;5015438;28;20179;-84
2023/12/02 02:21:01;;;;;;;19.58;15.18;;;2.20;99.90;;;;;;5017408;28;20194;-84
2023/12/02 02:23:27;;;;;;;21.63;16.20;;;2.70;99.90;;;;;;5021516;28;20751;-84
2023/12/02 02:25:53;;;;;;;23.40;15.77;;;2.80;99.90;;;;;;5015590;28;20648;-84
2023/12/02 02:28:23;;;;;;;22.33;15.55;;;2.20;99.90;;;;;;5015649;28;20191;-84
2023/12/02 02:30:49;;;;;;;23.00;15.80;;;2.30;99.90;;;;;;5020490;28;20191;-84
2023/12/02 02:33:15;;;;;;;24.70;16.67;;;2.20;99.90;;;;;;5024150;28;20856;-84
2023/12/02 02:35:41;;;;;;;22.85;15.55;;;2.40;99.90;;;;;;5020265;28;20435;-84
2023/12/02 02:38:07;;;;;;;23.87;15.37;;;2.40;99.90;;;;;;5022276;28;20203;-84
2023/12/02 02:40:32;;;;;;;22.20;16.23;;;2.00;99.90;;;;;;5032991;28;20234;-84
2023/12/02 02:42:58;;;;;;;22.40;15.80;;;2.20;99.90;;;;;;5034063;28;20683;-84
2023/12/02 02:45:23;;;;;;;25.50;16.80;;;2.10;99.90;;;;;;5030046;28;20191;-83
2023/12/02 02:47:49;;;;;;;23.50;16.37;;;2.30;99.90;;;;;;5036942;28;20207;-84
2023/12/02 02:50:15;;;;;;;27.65;16.38;;;2.30;99.90;;;;;;5025917;28;20756;-84
2023/12/02 02:52:41;;;;;;;24.20;16.83;;;2.50;99.90;;;;;;5021298;28;20206;-84
2023/12/02 02:55:07;;;;;;;24.00;16.65;;;1.90;99.90;;;;;;5013578;28;20478;-84
2023/12/02 02:57:33;;;;;;;26.60;17.33;;;2.00;99.90;;;;;;5021613;28;20188;-84
2023/12/02 02:59:58;;;;;;;26.50;15.57;;;1.90;99.90;;;;;;5028718;28;20741;-84
2023/12/02 03:02:24;;;;;;;21.13;13.97;;;1.90;99.90;;;;;;5030019;28;20183;-84
2023/12/02 03:04:49;;;;;;;22.60;14.37;;;2.40;99.90;;;;;;5015609;28;20206;-84
2023/12/02 03:07:15;;;;;;;21.00;15.17;;;1.90;99.90;;;;;;5017010;28;20180;-84
2023/12/02 03:09:40;;;;;;;22.50;16.40;;;2.40;99.90;;;;;;5016509;28;20179;-84
2023/12/02 03:12:06;;;;;;;24.23;16.10;;;2.00;99.90;;;;;;5015893;28;20670;-84
2023/12/02 03:14:31;;;;;;;21.83;15.80;;;2.10;99.90;;;;;;5027127;28;20206;-84
2023/12/02 03:16:57;;;;;;;24.47;15.43;;;2.00;99.90;;;;;;5037222;28;20186;-84
2023/12/02 03:19:23;;;;;;;23.53;15.03;;;2.10;99.90;;;;;;5029784;28;20196;-84
2023/12/02 03:21:48;;;;;;;25.53;17.20;;;2.00;99.90;;;;;;5025679;28;20209;-84
2023/12/02 03:24:14;;;;;;;22.43;16.00;;;2.00;99.90;;;;;;5024680;28;20229;-84
2023/12/02 03:26:41;;;;;;;19.07;15.00;;;2.10;99.90;;;;;;5008974;28;20433;-84
2023/12/02 03:29:08;;;;;;;22.42;14.63;;;2.30;99.90;;;;;;5023939;28;20433;-84
2023/12/02 03:31:33;;;;;;;24.90;15.35;;;2.30;99.90;;;;;;5021052;28;20214;-84
2023/12/02 03:33:59;;;;;;;20.73;13.87;;;2.00;99.90;;;;;;5022312;28;20233;-84
2023/12/02 03:36:25;;;;;;;25.07;16.80;;;2.10;99.90;;;;;;5022162;28;20218;-84
2023/12/02 03:38:50;;;;;;;24.17;16.67;;;1.70;99.90;;;;;;5021445;28;20478;-85
2023/12/02 03:41:16;;;;;;;24.73;15.20;;;1.80;99.90;;;;;;5011103;28;20190;-84
2023/12/02 03:43:41;;;;;;;22.77;16.03;;;1.80;99.90;;;;;;5023868;28;20588;-84
2023/12/02 03:46:07;;;;;;;28.23;17.40;;;1.80;99.90;;;;;;5009824;28;20190;-84
2023/12/02 03:48:32;;;;;;;22.23;14.90;;;1.80;99.90;;;;;;5022785;28;20220;-84
2023/12/02 03:50:59;;;;;;;24.27;15.17;;;1.80;99.90;;;;;;5039403;28;20168;-84
2023/12/02 03:53:25;;;;;;;24.75;15.95;;;1.60;99.90;;;;;;5042596;28;20229;-84
2023/12/02 03:55:53;;;;;;;20.17;14.88;;;1.70;99.90;;;;;;5022493;28;20179;-84
2023/12/02 03:58:19;;;;;;;26.58;16.98;;;1.60;99.90;;;;;;5013474;28;20192;-84
2023/12/02 04:00:44;;;;;;;21.40;14.65;;;1.50;99.90;;;;;;5051815;28;20213;-84
2023/12/02 04:03:10;;;;;;;22.43;15.03;;;1.50;99.90;;;;;;5033885;28;20189;-84
2023/12/02 04:05:35;;;;;;;21.50;14.40;;;1.80;99.90;;;;;;5035243;28;20191;-84
2023/12/02 04:08:01;;;;;;;26.93;16.20;;;1.70;99.90;;;;;;5023234;28;20182;-84
2023/12/02 04:10:26;;;;;;;24.10;15.77;;;1.80;99.90;;;;;;5020810;28;20198;-84
2023/12/02 04:12:52;;;;;;;21.43;14.50;;;1.80;99.90;;;;;;5032450;28;20214;-84
2023/12/02 04:15:17;;;;;;;19.53;13.93;;;2.10;99.90;;;;;;5018809;28;20720;-84
2023/12/02 04:17:43;;;;;;;20.80;13.93;;;2.00;99.90;;;;;;5034606;28;20181;-84
2023/12/02 04:20:11;;;;;;;17.87;13.60;;;1.60;99.90;;;;;;5026338;28;20193;-84
2023/12/02 04:22:38;;;;;;;18.27;12.60;;;1.60;99.90;;;;;;5031376;28;20200;-84
2023/12/02 04:25:04;;;;;;;16.40;12.43;;;1.60;99.90;;;;;;5042094;28;20233;-84
2023/12/02 04:27:31;;;;;;;18.40;13.23;;;1.60;99.90;;;;;;5032136;28;20211;-84
2023/12/02 04:29:57;;;;;;;19.92;13.80;;;1.80;99.90;;;;;;5030283;28;20186;-84
2023/12/02 04:32:23;;;;;;;19.27;13.07;;;1.70;99.90;;;;;;5020168;28;20184;-84
2023/12/02 04:34:48;;;;;;;16.00;11.27;;;1.50;99.90;;;;;;5022081;28;20227;-84
2023/12/02 04:37:15;;;;;;;15.30;12.30;;;1.80;99.90;;;;;;5021871;28;20573;-84
2023/12/02 04:39:40;;;;;;;17.20;11.18;;;2.00;99.90;;;;;;5022332;28;20450;-84
2023/12/02 04:42:06;;;;;;;16.10;12.23;;;1.50;99.90;;;;;;5032845;28;20238;-84
2023/12/02 04:44:32;;;;;;;18.07;11.97;;;1.90;99.90;;;;;;5038461;28;20206;-85
2023/12/02 04:46:58;;;;;;;17.00;12.38;;;1.70;99.90;;;;;;5026754;28;20730;-84
2023/12/02 04:49:23;;;;;;;16.50;12.10;;;1.50;99.90;;;;;;5039957;28;20217;-84
2023/12/02 04:51:49;;;;;;;16.67;12.23;;;1.60;99.90;;;;;;5037083;28;20472;-84
2023/12/02 04:54:15;;;;;;;15.60;11.70;;;1.70;99.90;;;;;;5022534;28;20227;-84
2023/12/02 04:56:40;;;;;;;18.13;14.00;;;1.30;99.90;;;;;;5018588;28;20445;-84
2023/12/02 04:59:06;;;;;;;18.00;13.80;;;1.50;99.90;;;;;;5019167;28;20210;-84
2023/12/02 05:01:32;;;;;;;15.90;11.27;;;1.00;99.90;;;;;;5012620;28;20665;-85
2023/12/02 05:03:58;;;;;;;16.60;12.13;;;1.20;99.90;;;;;;5033907;28;20271;-84
2023/12/02 05:06:23;;;;;;;15.90;12.30;;;1.70;99.90;;;;;;5015213;28;21603;-85
2023/12/02 05:08:49;;;;;;;17.47;11.70;;;1.40;99.90;;;;;;5015825;28;20187;-85
2023/12/02 05:11:20;;;;;;;16.60;11.67;;;2.00;99.90;;;;;;5017721;28;20656;-84
2023/12/02 05:13:47;;;;;;;20.13;12.40;;;1.90;99.90;;;;;;5015823;28;20232;-85
2023/12/02 05:16:13;;;;;;;13.95;11.35;;;1.40;99.90;;;;;;5016273;28;20601;-85
2023/12/02 05:18:42;;;;;;;17.15;12.10;;;1.90;99.90;;;;;;5030419;28;20526;-85
2023/12/02 05:21:09;;;;;;;17.33;13.43;;;1.30;99.90;;;;;;5022130;28;20210;-85
2023/12/02 05:23:41;;;;;;;16.92;12.88;;;1.30;99.90;;;;;;5018941;28;20202;-84
2023/12/02 05:26:07;;;;;;;14.75;11.73;;;1.20;99.90;;;;;;5044205;28;20219;-84
2023/12/02 05:28:33;;;;;;;18.48;13.00;;;1.60;99.90;;;;;;5034630;28;20259;-84
2023/12/02 05:30:58;;;;;;;14.88;11.25;;;2.00;99.90;;;;;;5035892;28;20187;-85
2023/12/02 05:33:24;;;;;;;17.67;12.53;;;1.60;99.90;;;;;;5016978;28;20226;-85
2023/12/02 05:35:50;;;;;;;15.90;12.10;;;1.80;99.90;;;;;;5016965;28;20179;-85
2023/12/02 05:38:16;;;;;;;15.30;11.57;;;1.30;99.90;;;;;;5033173;28;20195;-84
2023/12/02 05:40:42;;;;;;;18.15;13.68;;;1.60;99.90;;;;;;5013457;28;20809;-84
2023/12/02 05:43:08;;;;;;;17.77;13.13;;;1.70;99.90;;;;;;5012063;28;20187;-84
2023/12/02 05:45:33;;;;;;;19.23;12.83;;;1.40;99.90;;;;;;5012683;28;20556;-84
2023/12/02 05:47:59;;;;;;;19.27;13.50;;;2.10;99.90;;;;;;5032682;28;20445;-85
2023/12/02 05:50:26;;;;;;;16.70;12.60;;;1.60;99.90;;;;;;5016989;28;20877;-85
2023/12/02 05:52:52;;;;;;;15.10;11.73;;;2.30;99.90;;;;;;5020006;28;20206;-84
2023/12/02 05:55:17;;;;;;;18.80;13.23;;;1.10;99.90;;;;;;5015979;28;20832;-85
2023/12/02 05:57:46;;;;;;;15.73;12.30;;;1.60;99.90;;;;;;5010198;28;20172;-85
2023/12/02 06:00:13;;;;;;;15.57;11.93;;;1.80;99.90;;;;;;5028248;28;20274;-85
2023/12/02 06:02:38;;;;;;;14.45;11.10;;;1.60;99.90;;;;;;5013752;28;20195;-84
2023/12/02 06:05:06;;;;;;;18.37;12.67;;;1.80;99.90;;;;;;5018272;28;20211;-84
2023/12/02 06:07:32;;;;;;;16.25;11.18;;;1.50;99.90;;;;;;5014171;28;20214;-85
2023/12/02 06:09:57;;;;;;;13.82;10.82;;;1.60;99.90;;;;;;5011652;28;20570;-84
2023/12/02 06:12:23;;;;;;;13.93;10.73;;;1.50;99.90;;;;;;5010315;28;20187;-82
2023/12/02 06:14:49;;;;;;;14.07;10.63;;;2.00;99.90;;;;;;5005997;28;20200;-84
2023/12/02 06:17:15;;;;;;;15.43;11.23;;;1.70;99.90;;;;;;5012107;28;20218;-84
2023/12/02 06:19:40;;;;;;;15.50;11.07;;;1.60;99.90;;;;;;5013567;28;20214;-84
2023/12/02 06:22:06;;;;;;;15.90;10.73;;;1.90;99.90;;;;;;5034048;28;20553;-84
2023/12/02 06:24:31;;;;;;;15.87;11.37;;;1.50;99.90;;;;;;5033283;28;20270;-85
2023/12/02 06:26:57;;;;;;;15.03;10.80;;;1.50;99.90;;;;;;5009218;28;20200;-84
2023/12/02 06:29:22;;;;;;;16.23;12.10;;;1.50;99.90;;;;;;5012922;28;20278;-83
2023/12/02 06:31:50;;;;;;;16.30;11.63;;;1.70;99.90;;;;;;5008523;28;20285;-83
2023/12/02 06:34:16;;;;;;;18.73;12.38;;;1.10;99.90;;;;;;5023823;28;20282;-82
2023/12/02 06:36:44;;;;;;;17.27;12.05;;;1.90;99.90;;;;;;5030262;28;20233;-83
2023/12/02 06:39:12;;;;;;;18.00;11.55;;;1.60;99.90;;;;;;5033639;28;20538;-84
2023/12/02 06:41:41;;;;;;;16.60;11.82;;;1.90;99.90;;;;;;5029643;28;20179;-83
2023/12/02 06:44:08;;;;;;;15.05;11.77;;;1.60;99.90;;;;;;5016473;28;20227;-81
2023/12/02 06:46:34;;;;;;;15.15;11.27;;;1.70;99.90;;;;;;5016811;28;20560;-83
2023/12/02 06:49:00;;;;;;;18.05;13.05;;;1.80;99.90;;;;;;5012154;28;20186;-85
2023/12/02 06:51:28;;;;;;;17.10;12.63;;;1.30;99.90;;;;;;5012343;28;20184;-84
2023/12/02 06:53:57;;;;;;;14.80;12.05;;;1.40;99.90;;;;;;5012863;28;20219;-83
2023/12/02 06:56:24;;;;;;;17.10;11.40;;;1.30;99.90;;;;;;5016202;28;20190;-84
2023/12/02 06:58:51;;;;;;;15.15;11.85;;;1.00;99.90;;;;;;5008546;28;20198;-84
2023/12/02 07:01:28;;;;;;;18.70;12.55;;;1.30;99.90;;;;;;5015270;28;20237;-83
2023/12/02 07:03:56;;;;;;;15.38;12.73;;;1.40;99.90;;;;;;5034490;28;20233;-84
2023/12/02 07:06:22;;;;;;;18.10;12.48;;;1.30;99.90;;;;;;5032719;28;20269;-83
2023/12/02 07:08:51;;;;;;;15.25;12.35;;;1.30;99.90;;;;;;5025496;28;20183;-84
2023/12/02 07:11:17;;;;;;;16.65;12.80;;;1.30;99.90;;;;;;5045767;28;20206;-84
2023/12/02 07:13:43;;;;;;;17.30;12.52;;;1.50;99.90;;;;;;5026989;28;20194;-84
2023/12/02 07:16:10;;;;;;;16.03;11.57;;;1.40;99.90;;;;;;5040164;28;20222;-83
2023/12/02 07:18:35;;;;;;;17.27;12.02;;;1.60;99.90;;;;;;5024975;28;20434;-84
2023/12/02 07:21:02;;;;;;;15.70;12.03;;;1.40;99.90;;;;;;5037951;28;20222;-84
2023/12/02 07:23:31;;;;;;;19.55;12.27;;;1.00;99.90;;;;;;5027418;28;20213;-83
2023/12/02 07:25:57;;;;;;;17.30;11.77;;;1.60;99.90;;;;;;5016899;28;20267;-84
2023/12/02 07:28:23;;;;;;;17.15;12.65;;;1.60;99.90;;;;;;5031376;28;20649;-85
2023/12/02 07:30:49;;;;;;;16.75;11.15;;;1.10;99.90;;;;;;5015377;28;20186;-83
2023/12/02 07:33:15;;;;;;;15.53;12.07;;;1.30;99.90;;;;;;5013276;28;20187;-84
2023/12/02 07:35:40;;;;;;;16.95;12.05;;;1.30;99.90;;;;;;5016796;28;20186;-84
2023/12/02 07:38:06;;;;;;;17.40;11.70;;;1.50;99.90;;;;;;5032242;28;20259;-84
2023/12/02 07:40:32;;;;;;;15.67;11.67;;;1.20;99.90;;;;;;5012875;28;20214;-84
2023/12/02 07:42:57;;;;;;;17.43;12.60;;;0.90;99.90;;;;;;5023746;28;20530;-85
2023/12/02 07:45:23;;;;;;;20.10;14.50;;;1.00;99.90;;;;;;5012297;28;20198;-84
2023/12/02 07:47:48;;;;;;;23.20;13.93;;;1.40;99.90;;;;;;5038996;28;20197;-84
2023/12/02 07:50:15;;;;;;;18.80;13.50;;;1.30;99.90;;;;;;5011634;28;20641;-84
2023/12/02 07:52:41;;;;;;;22.58;15.23;;;1.00;99.90;;;;;;5017802;28;20210;-84
2023/12/02 07:55:07;;;;;;;17.20;13.13;;;0.90;99.90;;;;;;5021914;28;20678;-84
2023/12/02 07:57:32;;;;;;;20.27;13.40;;;1.20;99.90;;;;;;5035242;28;20190;-86
2023/12/02 07:59:58;;;;;;;15.10;12.07;;;1.30;99.90;;;;;;5020202;28;20448;-85
2023/12/02 08:02:24;;;;;;;13.93;10.70;;;1.00;99.90;;;;;;5019527;28;20179;-84
2023/12/02 08:04:50;;;;;;;17.08;12.55;;;1.30;99.90;;;;;;5024321;28;20199;-85
2023/12/02 08:07:15;;;;;;;16.07;14.23;;;1.10;99.90;;;;;;5036676;28;20186;-84
2023/12/02 08:09:41;;;;;;;13.60;10.43;;;1.10;99.90;;;;;;5043342;28;20454;-84
2023/12/02 08:12:06;;;;;;;16.10;11.67;;;1.00;99.90;;;;;;5027418;28;20183;-83
2023/12/02 08:14:33;;;;;;;15.47;10.40;;;1.20;99.90;;;;;;5016384;28;20219;-84
2023/12/02 08:16:59;;;;;;;22.25;15.30;;;1.80;99.90;;;;;;5025880;28;20189;-83
2023/12/02 08:19:24;;;;;;;21.70;12.83;;;1.10;99.90;;;;;;5034125;28;20269;-83
2023/12/02 08:21:50;;;;;;;17.43;11.63;;;1.70;99.90;;;;;;5031078;28;20188;-83
2023/12/02 08:24:16;;;;;;;15.45;11.32;;;1.30;99.90;;;;;;5012739;28;20207;-83
2023/12/02 08:26:42;;;;;;;18.30;12.00;;;1.60;99.90;;;;;;5032990;28;20214;-83
2023/12/02 08:29:07;;;;;;;17.23;12.43;;;1.50;99.90;;;;;;5023852;28;20208;-83
2023/12/02 08:31:33;;;;;;;16.43;11.77;;;1.60;99.90;;;;;;5021022;28;20242;-83
2023/12/02 08:33:58;;;;;;;16.77;12.23;;;1.80;99.90;;;;;;5016940;28;20695;-83
2023/12/02 08:36:24;;;;;;;15.53;11.60;;;1.20;99.90;;;;;;5022136;28;20246;-83
2023/12/02 08:38:50;;;;;;;17.67;12.30;;;1.40;99.90;;;;;;5036366;28;20211;-83
2023/12/02 08:41:15;;;;;;;20.80;14.23;;;1.70;99.90;;;;;;5021554;28;20438;-83
2023/12/02 08:43:41;;;;;;;16.80;12.20;;;1.20;99.90;;;;;;5023945;28;20213;-83
2023/12/02 08:46:18;;;;;;;19.47;13.60;;;1.10;99.90;;;;;;5024538;28;20191;-83
2023/12/02 08:48:45;;;;;;;17.42;13.20;;;1.10;99.90;;;;;;5025827;28;20188;-83
2023/12/02 08:51:11;;;;;;;20.20;13.82;;;1.60;99.90;;;;;;5027657;28;20705;-83
2023/12/02 08:53:36;;;;;;;18.07;12.77;;;1.10;99.90;;;;;;5049288;28;20202;-83
2023/12/02 08:56:02;;;;;;;19.07;13.90;;;1.50;99.90;;;;;;5036917;28;20183;-83
2023/12/02 08:58:27;;;;;;;18.67;14.17;;;1.10;99.90;;;;;;5035560;28;20187;-84
2023/12/02 09:00:53;;;;;;;18.00;13.83;;;1.30;99.90;;;;;;5020160;28;20194;-84
2023/12/02 09:03:19;;;;;;;18.17;13.53;;;1.70;99.90;;;;;;5032061;28;20191;-85
2023/12/02 09:05:45;;;;;;;18.80;13.43;;;1.30;99.90;;;;;;5052195;28;20187;-85
2023/12/02 09:08:12;;;;;;;20.13;14.07;;;1.30;99.90;;;;;;5031301;28;20175;-85
2023/12/02 09:10:38;;;;;;;21.40;14.07;;;1.10;99.90;;;;;;5044071;28;20197;-83
2023/12/02 09:13:32;;;;;;;18.07;13.47;;;1.10;99.90;;;;;;5024534;28;20259;-84
2023/12/02 09:15:57;;;;;;;16.77;11.07;;;1.00;99.90;;;;;;5032467;28;20273;-84
2023/12/02 09:18:36;;;;;;;15.63;11.40;;;0.60;99.90;;;;;;5033641;28;20191;-83
2023/12/02 09:21:02;;;;;;;18.38;11.80;;;1.00;99.90;;;;;;5034270;28;20430;-84
2023/12/02 09:23:28;;;;;;;13.70;10.70;;;1.00;99.90;;;;;;5045502;28;20229;-84
2023/12/02 09:26:01;;;;;;;19.73;12.53;;;0.90;99.90;;;;;;5029304;28;20444;-82
2023/12/02 09:28:29;;;;;;;15.25;12.77;;;1.40;99.90;;;;;;5036235;28;20226;-83
2023/12/02 09:31:03;;;;;;;17.40;12.45;;;1.00;99.90;;;;;;5051699;28;20175;-85
2023/12/02 09:33:29;;;;;;;14.80;10.95;;;1.00;99.90;;;;;;5045563;28;20221;-86
2023/12/02 09:36:02;;;;;;;15.30;11.87;;;1.20;99.90;;;;;;5042483;28;20206;-87
2023/12/02 09:38:28;;;;;;;16.85;11.55;;;0.90;99.90;;;;;;5025397;28;20194;-84
2023/12/02 09:41:19;;;;;;;16.58;11.30;;;1.00;99.90;;;;;;5023928;28;20183;-86
2023/12/02 09:44:03;;;;;;;17.55;11.07;;;1.00;99.90;;;;;;5032706;28;20211;-87
2023/12/02 09:46:51;;;;;;;17.98;11.88;;;1.00;99.90;;;;;;5026321;28;20179;-83
2023/12/02 09:49:29;;;;;;;16.27;13.20;;;0.80;99.90;;;;;;5020730;28;20595;-85
2023/12/02 09:52:29;;;;;;;15.93;11.45;;;0.90;99.90;;;;;;5010280;28;20183;-85
2023/12/02 09:55:15;;;;;;;15.65;12.00;;;0.80;99.90;;;;;;5014901;28;20360;-85
2023/12/02 09:58:19;;;;;;;16.42;12.50;;;0.50;99.90;;;;;;5020664;28;20171;-83
2023/12/02 10:01:14;;;;;;;16.75;13.05;;;1.00;99.90;;;;;;5036549;28;20179;-83
2023/12/02 10:04:38;;;;;;;18.58;13.18;;;0.80;99.90;;;;;;5033646;28;20261;-85
2023/12/02 10:07:22;;;;;;;14.45;11.15;;;0.90;99.90;;;;;;5000779;28;20257;-85
2023/12/02 10:09:59;;;;;;;16.70;12.88;;;1.20;99.90;;;;;;5017564;28;20183;-84
2023/12/02 10:12:40;;;;;;;17.55;12.20;;;0.90;99.90;;;;;;5035031;28;20255;-85
2023/12/02 10:15:11;;;;;;;16.02;11.40;;;1.10;99.90;;;;;;5018345;28;20227;-86
2023/12/02 10:17:40;;;;;;;15.38;10.02;;;1.50;99.90;;;;;;5008528;28;20619;-85
2023/12/02 10:20:11;;;;;;;18.15;12.98;;;1.20;99.90;;;;;;5005817;28;20179;-87
2023/12/02 10:22:49;;;;;;;13.43;10.68;;;1.20;99.90;;;;;;5015674;28;20183;-86
2023/12/02 10:25:38;;;;;;;15.70;11.68;;;0.90;99.90;;;;;;5034653;28;20229;-86
2023/12/02 10:28:28;;;;;;;14.77;10.90;;;0.70;99.90;;;;;;5035865;28;20210;-84
2023/12/02 10:30:58;;;;;;;17.17;10.55;;;0.60;99.90;;;;;;5026310;28;20727;-83
2023/12/02 10:33:38;;;;;;;15.35;13.05;;;1.10;99.90;;;;;;5017739;28;20238;-85
2023/12/02 10:36:08;;;;;;;14.50;11.70;;;1.20;99.90;;;;;;5019573;28;20195;-85
2023/12/02 10:39:15;;;;;;;15.45;11.18;;;1.30;99.90;;;;;;5034517;28;20180;-85
2023/12/02 10:41:49;;;;;;;17.33;11.65;;;1.30;99.90;;;;;;5005898;28;20191;-85
2023/12/02 10:44:18;;;;;;;15.02;10.70;;;0.80;99.90;;;;;;5023222;28;20265;-84
2023/12/02 10:46:45;;;;;;;15.45;11.23;;;1.20;99.90;;;;;;5029044;28;20189;-86
2023/12/02 10:49:14;;;;;;;14.25;11.02;;;1.30;99.90;;;;;;5014237;28;20222;-86
2023/12/02 10:51:42;;;;;;;13.63;11.23;;;1.20;99.90;;;;;;5017516;28;20648;-82
2023/12/02 10:54:12;;;;;;;14.52;11.75;;;1.60;99.90;;;;;;5020120;28;20215;-86
2023/12/02 10:56:39;;;;;;;18.13;11.25;;;1.50;99.90;;;;;;5015462;28;20180;-85
2023/12/02 10:59:07;;;;;;;15.23;11.10;;;1.20;99.90;;;;;;5017892;28;20207;-85
2023/12/02 11:01:40;;;;;;;14.25;10.68;;;1.70;99.90;;;;;;5034801;28;20187;-85
2023/12/02 11:04:17;;;;;;;13.25;11.18;;;1.50;99.90;;;;;;5034105;28;20274;-86
2023/12/02 11:06:51;;;;;;;16.60;10.85;;;1.20;99.90;;;;;;5031513;28;20183;-85
2023/12/02 11:09:30;;;;;;;14.63;10.90;;;1.50;99.90;;;;;;5031626;28;20186;-86
2023/12/02 11:12:04;;;;;;;15.00;11.13;;;1.30;99.90;;;;;;5035419;28;20215;-85
2023/12/02 11:14:39;;;;;;;12.93;10.65;;;1.10;99.90;;;;;;5014149;28;20204;-85
2023/12/02 11:17:43;;;;;;;14.20;10.30;;;1.10;99.90;;;;;;5035896;28;20179;-85
2023/12/02 11:20:50;;;;;;;13.25;10.25;;;1.10;99.90;;;;;;5012459;28;20606;-87
2023/12/02 11:23:41;;;;;;;13.02;10.57;;;1.20;99.90;;;;;;5014289;28;20215;-84
2023/12/02 11:26:32;;;;;;;15.05;10.20;;;1.20;99.90;;;;;;5032824;28;20175;-84
2023/12/02 11:29:18;;;;;;;15.07;10.68;;;1.20;99.90;;;;;;5025323;28;20254;-85
2023/12/02 11:32:03;;;;;;;12.98;10.05;;;1.20;99.90;;;;;;5020162;28;20301;-85
2023/12/02 11:34:43;;;;;;;14.57;10.52;;;1.50;99.90;;;;;;5010269;28;20215;-85
2023/12/02 11:37:28;;;;;;;13.02;10.70;;;1.10;99.90;;;;;;5027721;28;20704;-85
2023/12/02 11:40:03;;;;;;;13.65;10.38;;;1.30;99.90;;;;;;5013447;28;20241;-85
2023/12/02 11:42:38;;;;;;;14.05;11.02;;;1.30;99.90;;;;;;5032779;28;20192;-85
2023/12/02 11:45:17;;;;;;;15.75;11.35;;;1.60;99.90;;;;;;5017322;28;20208;-85
2023/12/02 11:48:09;;;;;;;13.32;10.70;;;1.00;99.90;;;;;;5012372;28;20638;-85
2023/12/02 11:50:55;;;;;;;16.15;11.35;;;1.10;99.90;;;;;;5006028;28;20197;-85
2023/12/02 11:53:43;;;;;;;13.98;11.52;;;0.80;99.90;;;;;;5014548;28;20204;-84
2023/12/02 11:56:10;;;;;;;16.30;12.70;;;0.90;99.90;;;;;;5017587;28;20210;-85
2023/12/02 11:58:48;;;;;;;12.60;9.85;;;1.00;99.90;;;;;;5019146;28;20577;-85
2023/12/02 12:01:32;;;;;;;12.95;10.52;;;1.10;99.90;;;;;;5018574;28;20188;-85
2023/12/02 12:04:09;;;;;;;12.70;9.60;;;1.40;99.90;;;;;;5016415;28;20301;-85
2023/12/02 12:07:12;;;;;;;10.25;8.25;;;1.30;99.90;;;;;;5029204;28;20191;-85
2023/12/02 12:09:42;;;;;;;11.30;8.73;;;1.20;99.90;;;;;;5023367;28;20194;-85
2023/12/02 12:12:11;;;;;;;9.45;8.35;;;1.20;99.90;;;;;;5031044;28;20222;-85
2023/12/02 12:14:38;;;;;;;11.07;8.40;;;1.40;99.90;;;;;;5023482;28;20620;-84
2023/12/02 12:17:04;;;;;;;9.77;8.77;;;1.90;99.90;;;;;;5026542;28;20210;-85
2023/12/02 12:19:30;;;;;;;9.90;7.90;;;1.30;99.90;;;;;;5039803;28;20268;-85
2023/12/02 12:21:56;;;;;;;10.53;8.77;;;0.80;99.90;;;;;;5022759;28;20655;-85
2023/12/02 12:24:22;;;;;;;10.25;8.32;;;1.60;99.90;;;;;;5038719;28;20465;-84
2023/12/02 12:26:48;;;;;;;10.10;8.60;;;1.50;99.90;;;;;;5036244;28;20246;-85
2023/12/02 12:29:15;;;;;;;9.43;8.20;;;1.40;99.90;;;;;;5037582;28;20454;-84
2023/12/02 12:31:42;;;;;;;10.23;8.25;;;1.20;99.90;;;;;;5052101;28;20171;-84
2023/12/02 12:34:11;;;;;;;8.98;7.95;;;1.40;99.90;;;;;;5042756;28;20214;-84
2023/12/02 12:36:39;;;;;;;10.00;6.88;;;1.30;99.90;;;;;;5038377;28;20207;-83
2023/12/02 12:39:07;;;;;;;9.18;6.88;;;1.40;99.90;;;;;;5036152;28;20191;-83
2023/12/02 12:41:36;;;;;;;8.80;7.57;;;1.80;99.90;;;;;;5038248;28;20179;-83
2023/12/02 12:44:03;;;;;;;9.98;8.90;;;1.40;99.90;;;;;;5038012;28;20203;-83
2023/12/02 12:46:29;;;;;;;10.05;8.15;;;1.50;99.90;;;;;;5039407;28;20186;-83